Portada
METAR-TAF:

METAR-TAF

Aeropuertos :

Aeropuerto Internacional de San Fernando

San Fernando, Argentina

latitud: 34-27-11S, longitud: 058-35-23W, altitud: 3 m

Observación

El informe se hizo hace 15 minutos, a las 02:00 UTC
Viento 6 kt del norte
Temperatura 9°C
Humedad 57%
Presión 1024 hPa
Visibilidad 10 km o más
sin nubes por debajo de 1500 m y sin presencia de cumulonimbus.

METAR: SADF 310200Z 36006KT CAVOK 09/01 Q1024

Hora: 23:15 (02:15 UTC)

Pronóstico

El informe se hizo hace 3 horas y 15 minutos, a las 23:00 UTC
Pronóstico válido del 31 a las 00 UTC al 31 a las 24 UTC
Viento 5 kt del norte-noreste
Visibilidad 10 km o más
sin nubes por debajo de 1500 m y sin presencia de cumulonimbus.

TAF: SADF 302300Z 3100/3124 02005KT CAVOK TX17/3118Z TN05/3111Z

Observaciones y pronósticos meteorológicos de más de 4000 aeropuertos (mensajes METAR y TAF).

Los puntos amarillos y rojos representan las estaciones disponibles.

Ponga el ratón en el punto deseado para ver el nombre de la estación.

Haga clic para ver las observaciones y los pronósticos meteorológicos.

Para cambiar el mapa : haga clic en los botones verdes con una cruz de color negro para hacer un zoom, en el botón verde con un guión para alejar o en las flechas verdes para mapas adyacentes.


METAR-TAF: